• Join FlightAware (Why Join?)
  • Login
  • US Flag 
04:29AM EDT


 

Airport Tracker/Info


-or-


 

Live Flight TrackerFlight Track Log ✈ SWA1245 ✈ 02-May-2013 ✈ KSLC - KLAS

Flight Track Log - Related Links

Times and Time Zones

All times are in EDT time to prevent confusion due to time zone crossing. See the SWA1245 flight status page for this flight to view local times or setup timezone preferences in your user account.

Time Position Orientation Groundspeed Altitude Reporting Facility
EDT Latitude Longitude Course Direction KTS MPH feet Rate Location/Type
08:20AM 40.8086 -112.0014 285° West 157 181 5,400  Level Salt Lake Center
08:21AM 40.8211 -112.0650 285° West 209 241 7,600 2,640 Climbing Salt Lake Center
08:22AM 40.8225 -112.0839 276° West 210 242 8,500 2,820 Climbing Salt Lake Center
08:22AM 40.8236 -112.1550 271° West 257 296 10,500 2,700 Climbing Salt Lake Center
08:23AM 40.8175 -112.1786 251° West 277 319 11,300 3,060 Climbing Salt Lake Center
08:23AM 40.7917 -112.2564 246° West 325 374 13,600 2,880 Climbing Salt Lake Center
08:24AM 40.7681 -112.2717 206° Southwest 338 389 14,200 3,180 Climbing Salt Lake Center
08:25AM 40.6619 -112.2956 190° South 388 447 17,700 3,180 Climbing Salt Lake Center
08:26AM 40.5494 -112.3133 187° South 407 468 20,700 2,580 Climbing Salt Lake Center
08:27AM 40.4328 -112.3397 190° South 427 491 23,000 2,040 Climbing Salt Lake Center
08:28AM 40.3139 -112.3739 192° South 438 504 24,900 2,280 Climbing Salt Lake Center
08:29AM 40.2039 -112.4525 209° Southwest 451 519 27,600 3,000 Climbing Salt Lake Center
08:30AM 40.0967 -112.5283 208° Southwest 438 504 30,900 2,160 Climbing Salt Lake Center
08:31AM 39.9914 -112.6033 209° Southwest 432 497 32,000 540 Climbing Salt Lake Center
08:32AM 39.8847 -112.6767 208° Southwest 432 497 32,000 960 Level Salt Lake Center
08:33AM 39.7789 -112.7508 208° Southwest 431 496 34,000 1,980 Climbing Salt Lake Center
08:34AM 39.6669 -112.8206 206° Southwest 441 507 36,000 960 Climbing Salt Lake Center
08:35AM 39.5436 -112.8406 187° South 445 512 36,000  Level Salt Lake Center
08:36AM 39.4186 -112.8586 186° South 451 519 36,000  Level Salt Lake Center
08:37AM 39.2956 -112.8769 187° South 447 514 36,000  Level Salt Lake Center
08:38AM 39.1728 -112.8950 187° South 445 512 36,000  Level Salt Lake Center
08:39AM 39.0511 -112.9144 187° South 443 510 36,000  Level Salt Lake Center
08:40AM 38.9292 -112.9317 186° South 442 509 36,000  Level Salt Lake Center
08:41AM 38.8081 -112.9506 187° South 441 507 36,000  Level Salt Lake Center
08:42AM 38.6872 -112.9703 187° South 440 506 36,000  Level Salt Lake Center
08:43AM 38.5653 -112.9875 186° South 440 506 36,000  Level Salt Lake Center
08:44AM 38.4381 -113.0053 186° South 448 516 36,000  Level Salt Lake Center
08:45AM 38.2947 -113.0544 195° South 450 518 36,000  Level Salt Lake Center
08:46AM 38.1867 -113.1211 206° Southwest 438 504 36,000  Level Salt Lake Center
08:47AM 38.0772 -113.1883 206° Southwest 440 506 36,000  Level Salt Lake Center
08:48AM 37.9686 -113.2547 206° Southwest 438 504 36,000  Level Salt Lake Center
08:49AM 37.8597 -113.3208 206° Southwest 438 504 36,000  Level Salt Lake Center
08:50AM 37.7497 -113.3864 205° Southwest 440 506 36,000  Level Salt Lake Center
08:51AM 37.6397 -113.4531 206° Southwest 442 509 36,000 -180 Level Salt Lake Center
08:52AM 37.5289 -113.5186 205° Southwest 444 511 35,700 -660 Descending Salt Lake Center
08:53AM 37.4183 -113.5875 206° Southwest 448 516 34,700 -960 Descending Salt Lake Center
08:54AM 37.3047 -113.6544 205° Southwest 449 517 33,800 -1,620 Descending Salt Lake Center
08:55AM 37.1914 -113.7192 204° Southwest 449 517 31,500 -2,220 Descending Salt Lake Center
08:56AM 37.0808 -113.7833 205° Southwest 446 513 29,300 -2,400 Descending Salt Lake Center
08:57AM 36.9581 -113.8611 207° Southwest 427 491 26,700 -2,220 Descending Salt Lake Center
08:58AM 36.8547 -113.9181 204° Southwest 405 466 24,700 -1,920 Descending Los Angeles Center
08:59AM 36.7583 -113.9753 205° Southwest 392 451 22,700 -1,980 Descending Los Angeles Center
09:00AM 36.6639 -114.0303 205° Southwest 380 437 20,800 -1,920 Descending Los Angeles Center
09:01AM 36.5725 -114.0914 208° Southwest 375 432 18,900 -1,800 Descending Los Angeles Center
09:02AM 36.5233 -114.1997 241° Southwest 357 411 17,200 -1,980 Descending Los Angeles Center
09:03AM 36.4728 -114.3092 240° Southwest 356 410 15,000 -2,100 Descending Los Angeles Center
09:04AM 36.4244 -114.4133 240° Southwest 350 403 13,000 -2,280 Descending Los Angeles Center
09:04AM 36.4067 -114.4597 245° Southwest 344 396 12,100 -1,680 Descending Los Angeles Center
09:05AM 36.3858 -114.4828 222° Southwest 332 382 12,000 -180 Descending Los Angeles Center
09:05AM 36.3600 -114.4883 190° South 339 390 12,000  Level Los Angeles Center
09:06AM 36.3019 -114.5139 200° South 323 372 12,000  Level Los Angeles Center
09:06AM 36.2867 -114.5361 230° Southwest 316 364 12,000 -240 Level Los Angeles Center
09:07AM 36.2667 -114.6089 251° West 306 352 11,800 -600 Descending Los Angeles Center
09:07AM 36.2556 -114.6347 242° Southwest 306 352 11,400 -1,620 Descending Los Angeles Center
09:08AM 36.2325 -114.7083 249° West 302 348 10,200 -1,380 Descending Los Angeles Center
09:08AM 36.2236 -114.7311 244° Southwest 302 348 10,000 -1,380 Descending Los Angeles Center
09:09AM 36.2011 -114.8017 248° West 293 337 8,800 -1,440 Descending Los Angeles Center
09:09AM 36.1919 -114.8242 243° Southwest 295 339 8,600 -840 Descending Los Angeles Center
09:10AM 36.1697 -114.8947 249° West 294 338 8,000 -600 Descending Los Angeles Center
09:10AM 36.1600 -114.9169 242° Southwest 293 337 8,000  Level Los Angeles Center
09:11AM 36.1408 -114.9792 249° West 262 302 8,000  Level Los Angeles Center
09:11AM 36.1333 -114.9992 245° Southwest 266 306 8,000  Level Los Angeles Center
09:12AM 36.1075 -115.0639 244° Southwest 223 257 8,000  Level Los Angeles Center
09:13AM 36.0669 -115.0861 204° Southwest 217 250 8,000  Level Los Angeles Center
09:13AM 36.0517 -115.0931 200° South 221 254 8,000 -1,140 Level Los Angeles Center
09:14AM 36.0136 -115.1197 210° Southwest 215 247 6,900 -1,500 Descending Los Angeles Center
09:14AM 35.9989 -115.1264 200° South 215 247 6,500 -1,200 Descending Los Angeles Center
09:15AM 35.9742 -115.1567 225° Southwest 165 190 5,700 -1,140 Descending Los Angeles Center
09:15AM 35.9783 -115.1661 299° West 184 212 5,400 -1,500 Descending Los Angeles Center
09:16AM 35.9989 -115.1908 316° Northwest 126 145 4,200 -1,200 Descending Los Angeles Center
09:16AM 36.0089 -115.1956 339° North 152 175 4,200 -900 Level Los Angeles Center
09:17AM 36.0339 -115.1928 North 119 137 3,200 -1,200 Descending Los Angeles Center
09:17AM 36.0508 -115.1847 21° North 120 138 2,800 -780 Descending Los Angeles Center
09:18AM 36.0686 -115.1733 27° Northeast 129 148 2,400 -720 Descending Los Angeles Center
09:18AM 36.0828 -115.1636 29° Northeast 131 151 2,100 -240 Descending Los Angeles Center
09:19AM 36.0972 -115.1556 24° Northeast 81 93 2,100  Level Los Angeles Center
09:21AM 36.0801 -115.1523 18° North  Level Estimated